createdAt,value
2023-11-23T00:00:16.631Z,14.10
2023-11-23T00:02:46.292Z,14.02
2023-11-23T00:05:14.151Z,14.60
2023-11-23T00:07:42.096Z,16.02
2023-11-23T00:10:11.729Z,11.60
2023-11-23T00:12:42.191Z,15.00
2023-11-23T00:15:11.154Z,15.25
2023-11-23T00:17:39.126Z,15.00
2023-11-23T00:20:10.487Z,16.02
2023-11-23T00:22:39.044Z,13.52
2023-11-23T00:25:13.141Z,15.75
2023-11-23T00:27:41.157Z,15.27
2023-11-23T00:30:09.967Z,17.77
2023-11-23T00:32:37.931Z,13.52
2023-11-23T00:35:07.576Z,12.10
2023-11-23T00:37:36.698Z,12.50
2023-11-23T00:40:07.147Z,12.05
2023-11-23T00:42:34.907Z,12.98
2023-11-23T00:45:02.779Z,13.30
2023-11-23T00:47:30.594Z,10.13
2023-11-23T00:49:58.702Z,9.07
2023-11-23T00:52:27.326Z,6.93
2023-11-23T00:54:58.283Z,7.18
2023-11-23T00:57:26.098Z,7.65
2023-11-23T00:59:53.908Z,9.68
2023-11-23T01:02:22.424Z,10.43
2023-11-23T01:04:51.628Z,9.90
2023-11-23T01:07:19.391Z,10.93
2023-11-23T01:09:47.138Z,10.77
2023-11-23T01:12:16.267Z,12.40
2023-11-23T01:14:44.287Z,11.35
2023-11-23T01:17:12.314Z,9.32
2023-11-23T01:19:40.272Z,13.32
2023-11-23T01:22:08.107Z,15.35
2023-11-23T01:24:36.863Z,15.73
2023-11-23T01:27:05.022Z,15.82
2023-11-23T01:29:34.320Z,14.95
2023-11-23T01:32:02.121Z,13.57
2023-11-23T01:34:29.929Z,15.95
2023-11-23T01:36:57.762Z,14.43
2023-11-23T01:39:26.662Z,11.98
2023-11-23T01:41:55.003Z,12.18
2023-11-23T01:44:23.339Z,13.00
2023-11-23T01:46:54.176Z,11.60
2023-11-23T01:49:23.438Z,13.35
2023-11-23T01:51:51.725Z,10.43
2023-11-23T01:54:20.337Z,11.90
2023-11-23T01:56:51.793Z,10.93
2023-11-23T01:59:19.693Z,11.23
2023-11-23T02:01:47.532Z,11.32
2023-11-23T02:04:17.230Z,11.88
2023-11-23T02:06:45.004Z,10.98
2023-11-23T02:09:13.772Z,10.43
2023-11-23T02:11:41.696Z,12.60
2023-11-23T02:14:09.939Z,9.18
2023-11-23T02:16:38.872Z,12.60
2023-11-23T02:19:07.244Z,9.48
2023-11-23T02:21:36.597Z,10.50
2023-11-23T02:24:09.419Z,10.65
2023-11-23T02:26:37.246Z,9.55
2023-11-23T02:29:06.409Z,8.38
2023-11-23T02:31:35.018Z,9.13
2023-11-23T02:34:03.873Z,12.52
2023-11-23T02:36:31.745Z,9.20
2023-11-23T02:38:59.560Z,9.30
2023-11-23T02:41:28.637Z,8.38
2023-11-23T02:43:56.567Z,8.50
2023-11-23T02:46:25.981Z,9.40
2023-11-23T02:48:53.840Z,8.57
2023-11-23T02:51:21.613Z,8.95
2023-11-23T02:53:49.608Z,8.88
2023-11-23T02:56:17.972Z,7.70
2023-11-23T02:58:47.853Z,8.85
2023-11-23T03:01:15.929Z,8.20
2023-11-23T03:03:44.114Z,7.57
2023-11-23T03:06:14.726Z,8.63
2023-11-23T03:08:42.646Z,7.28
2023-11-23T03:11:20.593Z,6.80
2023-11-23T03:13:50.511Z,7.07
2023-11-23T03:16:18.653Z,6.28
2023-11-23T03:18:49.046Z,7.30
2023-11-23T03:21:17.092Z,8.52
2023-11-23T03:23:46.759Z,7.75
2023-11-23T03:26:14.660Z,10.10
2023-11-23T03:28:42.367Z,7.20
2023-11-23T03:31:11.805Z,9.60
2023-11-23T03:33:39.900Z,7.50
2023-11-23T03:36:08.463Z,6.82
2023-11-23T03:38:36.215Z,9.68
2023-11-23T03:41:05.261Z,7.28
2023-11-23T03:43:33.038Z,8.13
2023-11-23T03:46:00.870Z,10.82
2023-11-23T03:48:30.134Z,7.18
2023-11-23T03:50:58.116Z,7.28
2023-11-23T03:53:25.946Z,7.30
2023-11-23T03:55:53.737Z,5.80
2023-11-23T03:58:23.785Z,7.68
2023-11-23T04:00:51.619Z,6.25
2023-11-23T04:03:19.589Z,5.78
2023-11-23T04:05:49.030Z,7.35
2023-11-23T04:08:17.278Z,6.93
2023-11-23T04:10:45.163Z,6.95
2023-11-23T04:13:14.438Z,8.75
2023-11-23T04:15:42.198Z,5.70
2023-11-23T04:18:10.079Z,6.57
2023-11-23T04:20:37.826Z,7.18
2023-11-23T04:23:08.965Z,5.97
2023-11-23T04:25:36.716Z,6.47
2023-11-23T04:28:04.630Z,6.15
2023-11-23T04:30:32.501Z,7.55
2023-11-23T04:33:00.529Z,7.22
2023-11-23T04:35:29.005Z,8.23
2023-11-23T04:37:57.186Z,7.60
2023-11-23T04:40:26.533Z,7.80
2023-11-23T04:42:54.284Z,7.28
2023-11-23T04:45:22.252Z,6.53
2023-11-23T04:47:50.008Z,8.88
2023-11-23T04:50:20.745Z,6.63
2023-11-23T04:52:49.932Z,6.82
2023-11-23T04:55:17.850Z,7.38
2023-11-23T04:57:47.202Z,9.80
2023-11-23T05:00:16.165Z,10.25
2023-11-23T05:02:45.043Z,6.22
2023-11-23T05:05:13.397Z,9.93
2023-11-23T05:07:41.680Z,8.45
2023-11-23T05:10:10.508Z,7.18
2023-11-23T05:12:38.784Z,10.07
2023-11-23T05:15:09.402Z,9.80
2023-11-23T05:17:37.256Z,10.63
2023-11-23T05:20:07.526Z,7.07
2023-11-23T05:22:35.290Z,7.88
2023-11-23T05:25:03.631Z,6.55
2023-11-23T05:27:31.577Z,7.90
2023-11-23T05:29:59.397Z,9.52
2023-11-23T05:32:28.590Z,8.70
2023-11-23T05:34:56.348Z,8.50
2023-11-23T05:37:24.143Z,7.25
2023-11-23T05:39:51.962Z,8.15
2023-11-23T05:42:19.733Z,8.35
2023-11-23T05:44:47.536Z,13.32
2023-11-23T05:47:15.578Z,9.15
2023-11-23T05:49:44.853Z,7.65
2023-11-23T05:52:12.823Z,8.25
2023-11-23T05:54:40.789Z,9.13
2023-11-23T05:57:09.077Z,6.25
2023-11-23T05:59:37.802Z,6.25
2023-11-23T06:02:07.055Z,8.80
2023-11-23T06:04:34.913Z,6.38
2023-11-23T06:07:04.906Z,9.88
2023-11-23T06:09:32.629Z,7.10
2023-11-23T06:12:00.343Z,8.60
2023-11-23T06:14:28.189Z,10.50
2023-11-23T06:16:55.933Z,8.55
2023-11-23T06:19:23.717Z,9.18
2023-11-23T06:21:52.245Z,8.48
2023-11-23T06:24:21.754Z,8.45
2023-11-23T06:26:52.025Z,13.15
2023-11-23T06:29:20.307Z,9.10
2023-11-23T06:31:48.095Z,9.68
2023-11-23T06:34:15.107Z,7.63
2023-11-23T06:36:47.705Z,8.48
2023-11-23T06:39:24.903Z,9.23
2023-11-23T06:41:55.473Z,6.80
2023-11-23T06:44:24.027Z,7.60
2023-11-23T06:46:51.824Z,8.05
2023-11-23T06:49:19.702Z,8.73
2023-11-23T06:51:47.972Z,10.85
2023-11-23T06:54:15.946Z,8.85
2023-11-23T06:56:43.816Z,11.45
2023-11-23T06:59:13.645Z,11.10
2023-11-23T07:01:41.478Z,9.75
2023-11-23T07:04:10.804Z,8.43
2023-11-23T07:06:39.874Z,8.98
2023-11-23T07:09:11.643Z,9.88
2023-11-23T07:11:39.951Z,9.40
2023-11-23T07:14:08.349Z,8.00
2023-11-23T07:16:38.614Z,8.80
2023-11-23T07:19:06.594Z,8.40
2023-11-23T07:21:34.455Z,10.48
2023-11-23T07:24:02.252Z,9.90
2023-11-23T07:26:32.143Z,11.90
2023-11-23T07:28:59.879Z,10.18
2023-11-23T07:31:28.053Z,11.63
2023-11-23T07:33:57.304Z,7.95
2023-11-23T07:36:27.530Z,12.23
2023-11-23T07:38:55.837Z,12.75
2023-11-23T07:41:23.673Z,12.93
2023-11-23T07:43:51.832Z,9.32
2023-11-23T07:46:20.862Z,10.25
2023-11-23T07:48:55.707Z,10.05
2023-11-23T07:51:26.140Z,9.50
2023-11-23T07:53:53.898Z,15.38
2023-11-23T07:56:22.302Z,9.45
2023-11-23T07:58:52.830Z,10.55
2023-11-23T08:01:20.776Z,9.52
2023-11-23T08:03:48.896Z,13.00
2023-11-23T08:06:17.670Z,11.85
2023-11-23T08:08:48.697Z,10.13
2023-11-23T08:11:16.730Z,15.68
2023-11-23T08:13:44.510Z,9.60
2023-11-23T08:16:13.578Z,9.82
2023-11-23T08:18:47.337Z,11.57
2023-11-23T08:21:18.235Z,9.63
2023-11-23T08:23:47.413Z,8.98
2023-11-23T08:26:17.091Z,8.75
2023-11-23T08:28:44.857Z,10.40
2023-11-23T08:31:13.107Z,12.38
2023-11-23T08:33:40.999Z,14.38
2023-11-23T08:36:09.448Z,8.90
2023-11-23T08:38:38.386Z,8.80
2023-11-23T08:41:07.904Z,9.98
2023-11-23T08:43:38.504Z,10.30
2023-11-23T08:46:08.311Z,11.95
2023-11-23T08:48:36.238Z,10.25
2023-11-23T08:51:05.144Z,10.65
2023-11-23T08:53:33.079Z,10.30
2023-11-23T08:56:00.840Z,13.38
2023-11-23T08:58:29.970Z,12.85
2023-11-23T09:00:57.807Z,8.43
2023-11-23T09:03:25.683Z,10.82
2023-11-23T09:05:53.621Z,10.98
2023-11-23T09:08:21.654Z,10.00
2023-11-23T09:10:49.826Z,12.30
2023-11-23T09:13:18.669Z,11.27
2023-11-23T09:15:49.806Z,11.25
2023-11-23T09:18:17.667Z,10.02
2023-11-23T09:20:46.481Z,12.02
2023-11-23T09:23:14.228Z,13.35
2023-11-23T09:25:41.939Z,9.75
2023-11-23T09:28:10.458Z,10.88
2023-11-23T09:30:38.448Z,19.80
2023-11-23T09:33:10.510Z,18.48
2023-11-23T09:35:39.643Z,8.88
2023-11-23T09:38:07.784Z,8.07
2023-11-23T09:40:35.868Z,8.60
2023-11-23T09:43:03.995Z,8.45
2023-11-23T09:45:32.025Z,8.48
2023-11-23T09:48:01.854Z,10.15
2023-11-23T09:50:35.637Z,8.80
2023-11-23T09:53:09.099Z,10.45
2023-11-23T09:55:37.005Z,13.23
2023-11-23T09:58:06.087Z,10.50
2023-11-23T10:00:36.955Z,12.25
2023-11-23T10:03:09.581Z,12.68
2023-11-23T10:05:39.990Z,11.00
2023-11-23T10:08:07.801Z,10.23
2023-11-23T10:10:40.181Z,8.40
2023-11-23T10:13:10.235Z,11.15
2023-11-23T10:15:38.457Z,13.45
2023-11-23T10:18:06.424Z,10.35
2023-11-23T10:20:38.055Z,9.32
2023-11-23T10:23:10.656Z,9.30
2023-11-23T10:25:38.571Z,11.20
2023-11-23T10:28:06.750Z,10.23
2023-11-23T10:30:34.864Z,9.52
2023-11-23T10:33:03.073Z,12.88
2023-11-23T10:35:36.929Z,12.13
2023-11-23T10:38:05.020Z,13.23
2023-11-23T10:40:34.520Z,10.50
2023-11-23T10:43:03.674Z,13.00
2023-11-23T10:45:35.526Z,11.25
2023-11-23T10:48:05.422Z,9.98
2023-11-23T10:50:34.777Z,13.25
2023-11-23T10:53:04.194Z,10.52
2023-11-23T10:55:32.173Z,12.77
2023-11-23T10:58:06.543Z,10.57
2023-11-23T11:00:35.253Z,11.95
2023-11-23T11:03:05.984Z,11.77
2023-11-23T11:05:39.295Z,14.45
2023-11-23T11:08:08.858Z,11.63
2023-11-23T11:10:51.297Z,10.48
2023-11-23T11:13:22.657Z,8.90
2023-11-23T11:15:53.146Z,10.00
2023-11-23T11:18:25.871Z,7.35
2023-11-23T11:21:09.424Z,9.20
2023-11-23T11:23:41.535Z,14.18
2023-11-23T11:26:13.550Z,10.07
2023-11-23T11:28:43.444Z,9.77
2023-11-23T11:31:14.785Z,9.95
2023-11-23T11:33:43.091Z,7.40
2023-11-23T11:36:13.963Z,8.55
2023-11-23T11:38:42.028Z,8.35
2023-11-23T11:41:11.353Z,8.32
2023-11-23T11:43:39.104Z,7.45
2023-11-23T11:46:08.479Z,8.40
2023-11-23T11:48:36.474Z,7.53
2023-11-23T11:51:06.462Z,8.65
2023-11-23T11:53:34.426Z,7.28
2023-11-23T11:56:02.903Z,8.48
2023-11-23T11:58:31.014Z,7.28
2023-11-23T12:00:58.934Z,9.77
2023-11-23T12:03:28.407Z,9.98
2023-11-23T12:05:56.608Z,7.82
2023-11-23T12:08:26.220Z,10.98
2023-11-23T12:10:54.406Z,10.23
2023-11-23T12:13:26.218Z,10.98
2023-11-23T12:15:55.058Z,8.20
2023-11-23T12:18:33.998Z,12.90
2023-11-23T12:21:01.819Z,8.05
2023-11-23T12:23:30.510Z,7.10
2023-11-23T12:25:58.626Z,9.73
2023-11-23T12:28:27.323Z,6.75
2023-11-23T12:30:55.164Z,14.77
2023-11-23T12:33:23.063Z,9.40
2023-11-23T12:35:52.285Z,8.25
2023-11-23T12:38:20.068Z,8.70
2023-11-23T12:40:47.870Z,7.57
2023-11-23T12:43:16.083Z,8.95
2023-11-23T12:45:44.947Z,8.02
2023-11-23T12:48:12.915Z,6.88
2023-11-23T12:50:40.924Z,6.78
2023-11-23T12:53:11.269Z,7.53
2023-11-23T12:55:39.042Z,9.23
2023-11-23T12:58:07.127Z,9.00
2023-11-23T13:00:37.536Z,6.13
2023-11-23T13:03:07.031Z,6.38
2023-11-23T13:05:35.162Z,9.00
2023-11-23T13:08:03.482Z,5.75
2023-11-23T13:10:32.846Z,5.65
2023-11-23T13:13:01.458Z,5.55
2023-11-23T13:15:31.300Z,5.03
2023-11-23T13:18:00.871Z,5.03
2023-11-23T13:20:29.311Z,5.25
2023-11-23T13:22:57.120Z,5.68
2023-11-23T13:25:25.001Z,5.82
2023-11-23T13:27:57.458Z,7.95
2023-11-23T13:30:28.521Z,5.03
2023-11-23T13:32:58.174Z,5.90
2023-11-23T13:35:28.115Z,5.55
2023-11-23T13:37:56.044Z,5.10
2023-11-23T13:40:24.318Z,5.85
2023-11-23T13:42:53.718Z,8.18
2023-11-23T13:45:24.068Z,5.07
2023-11-23T13:47:52.477Z,7.45
2023-11-23T13:50:20.205Z,6.00
2023-11-23T13:52:48.125Z,5.25
2023-11-23T13:55:16.389Z,5.07
2023-11-23T13:57:44.370Z,6.38
2023-11-23T14:00:20.471Z,4.85
2023-11-23T14:02:49.730Z,5.57
2023-11-23T14:05:17.760Z,5.45
2023-11-23T14:07:45.599Z,5.88
2023-11-23T14:10:14.893Z,5.00
2023-11-23T14:12:43.123Z,5.03
2023-11-23T14:15:12.368Z,3.78
2023-11-23T14:17:41.190Z,9.95
2023-11-23T14:20:13.545Z,8.02
2023-11-23T14:22:41.353Z,8.13
2023-11-23T14:25:10.503Z,11.88
2023-11-23T14:27:39.038Z,5.55
2023-11-23T14:30:08.832Z,4.53
2023-11-23T14:32:36.772Z,5.00
2023-11-23T14:35:06.142Z,4.03
2023-11-23T14:37:36.213Z,6.75
2023-11-23T14:40:14.122Z,4.80
2023-11-23T14:42:48.676Z,6.45
2023-11-23T14:45:24.892Z,4.85
2023-11-23T14:47:53.610Z,6.18
2023-11-23T14:50:22.309Z,4.10
2023-11-23T14:52:51.602Z,6.28
2023-11-23T14:55:19.812Z,6.05
2023-11-23T14:57:47.846Z,6.47
2023-11-23T15:00:17.920Z,6.90
2023-11-23T15:02:46.790Z,5.38
2023-11-23T15:05:16.449Z,8.02
2023-11-23T15:07:44.440Z,7.65
2023-11-23T15:10:14.060Z,4.68
2023-11-23T15:12:44.752Z,6.95
2023-11-23T15:15:14.014Z,7.40
2023-11-23T15:17:42.219Z,5.88
2023-11-23T15:20:11.536Z,6.00
2023-11-23T15:22:39.449Z,7.00
2023-11-23T15:25:11.560Z,6.45
2023-11-23T15:27:43.843Z,8.77
2023-11-23T15:30:13.023Z,7.85
2023-11-23T15:32:43.753Z,7.32
2023-11-23T15:35:14.107Z,9.68
2023-11-23T15:37:42.382Z,8.27
2023-11-23T15:40:11.409Z,9.30
2023-11-23T15:42:40.789Z,9.82
2023-11-23T15:45:09.782Z,8.63
2023-11-23T15:47:37.975Z,9.93
2023-11-23T15:50:08.705Z,10.43
2023-11-23T15:52:37.233Z,12.32
2023-11-23T15:55:07.779Z,9.55
2023-11-23T16:09:23.412Z,9.93
2023-11-23T16:11:51.284Z,9.27
2023-11-23T16:14:19.274Z,9.45
2023-11-23T16:16:48.964Z,9.70
2023-11-23T16:19:17.182Z,22.23
2023-11-23T16:21:45.044Z,11.27
2023-11-23T16:24:12.886Z,9.02
2023-11-23T16:26:41.292Z,11.63
2023-11-23T16:29:11.961Z,9.52
2023-11-23T16:31:43.509Z,12.65
2023-11-23T16:34:15.991Z,13.52
2023-11-23T16:36:46.185Z,11.15
2023-11-23T16:39:16.944Z,10.18
2023-11-23T16:41:45.577Z,13.60
2023-11-23T16:44:15.891Z,12.43
2023-11-23T16:46:44.077Z,12.05
2023-11-23T16:49:13.989Z,12.18
2023-11-23T16:51:41.977Z,11.82
2023-11-23T16:54:10.346Z,12.13
2023-11-23T16:56:38.415Z,13.02
2023-11-23T16:59:10.118Z,11.20
2023-11-23T17:01:40.169Z,13.57
2023-11-23T17:04:08.746Z,11.30
2023-11-23T17:06:40.487Z,11.82
2023-11-23T17:09:08.617Z,12.02
2023-11-23T17:11:36.545Z,12.32
2023-11-23T17:14:04.508Z,15.90
2023-11-23T17:16:33.246Z,12.50
2023-11-23T17:19:01.330Z,13.77
2023-11-23T17:21:29.312Z,13.18
2023-11-23T17:23:58.775Z,14.52
2023-11-23T17:26:26.628Z,12.90
2023-11-23T17:28:56.704Z,13.48
2023-11-23T17:31:24.519Z,14.88
2023-11-23T17:33:52.513Z,12.93
2023-11-23T17:36:20.779Z,15.80
2023-11-23T17:38:48.910Z,16.95
2023-11-23T17:41:18.168Z,13.35
2023-11-23T17:43:47.655Z,15.43
2023-11-23T17:46:15.729Z,15.32
2023-11-23T17:48:43.641Z,12.70
2023-11-23T17:51:14.404Z,18.67
2023-11-23T17:53:44.049Z,14.60
2023-11-23T17:56:12.083Z,17.92
2023-11-23T17:58:41.504Z,17.30
2023-11-23T18:01:09.741Z,17.17
2023-11-23T18:03:37.761Z,20.02
2023-11-23T18:06:06.687Z,18.52
2023-11-23T18:08:35.196Z,13.80
2023-11-23T18:11:03.165Z,16.55
2023-11-23T18:13:31.150Z,26.83
2023-11-23T18:16:00.432Z,17.73
2023-11-23T18:18:28.372Z,12.73
2023-11-23T18:20:58.010Z,11.80
2023-11-23T18:23:28.157Z,10.30
2023-11-23T18:25:56.801Z,9.10
2023-11-23T18:28:25.313Z,11.07
2023-11-23T18:30:54.641Z,8.55
2023-11-23T18:33:24.409Z,9.07
2023-11-23T18:35:52.328Z,8.50
2023-11-23T18:38:20.213Z,7.20
2023-11-23T18:40:48.831Z,6.97
2023-11-23T18:43:16.765Z,8.02
2023-11-23T18:45:44.820Z,9.02
2023-11-23T18:48:12.809Z,5.30
2023-11-23T18:50:42.072Z,9.90
2023-11-23T18:53:09.931Z,7.40
2023-11-23T18:55:37.976Z,8.02
2023-11-23T18:58:06.436Z,6.47
2023-11-23T19:00:35.032Z,6.43
2023-11-23T19:03:03.219Z,8.73
2023-11-23T19:05:31.340Z,9.68
2023-11-23T19:08:00.742Z,17.23
2023-11-23T19:10:28.563Z,6.28
2023-11-23T19:13:03.826Z,8.48
2023-11-23T19:15:34.544Z,6.30
2023-11-23T19:18:04.415Z,7.53
2023-11-23T19:20:35.264Z,5.82
2023-11-23T19:23:06.232Z,5.70
2023-11-23T19:25:35.353Z,5.68
2023-11-23T19:28:06.026Z,6.20
2023-11-23T19:33:29.258Z,6.35
2023-11-23T19:35:58.104Z,8.15
2023-11-23T19:38:28.199Z,4.72
2023-11-23T19:41:01.127Z,7.10
2023-11-23T19:43:30.296Z,6.65
2023-11-23T19:45:59.150Z,6.78
2023-11-23T19:48:29.111Z,7.45
2023-11-23T19:50:57.789Z,6.78
2023-11-23T19:53:30.827Z,6.88
2023-11-23T19:55:59.184Z,7.63
2023-11-23T19:58:28.362Z,7.47
2023-11-23T20:00:56.322Z,10.30
2023-11-23T20:03:24.127Z,7.80
2023-11-23T20:05:51.990Z,8.40
2023-11-23T20:08:19.843Z,11.88
2023-11-23T20:10:50.456Z,10.23
2023-11-23T20:13:19.926Z,9.57
2023-11-23T20:15:47.881Z,9.32
2023-11-23T20:18:15.942Z,9.48
2023-11-23T20:20:43.978Z,8.93
2023-11-23T20:23:13.591Z,11.63
2023-11-23T20:25:41.320Z,8.00
2023-11-23T20:28:13.468Z,13.18
2023-11-23T20:30:41.411Z,15.15
2023-11-23T20:33:09.584Z,14.05
2023-11-23T20:35:39.289Z,8.88
2023-11-23T20:38:07.363Z,10.30
2023-11-23T20:40:35.330Z,8.75
2023-11-23T20:43:03.215Z,9.90
2023-11-23T20:45:32.342Z,10.68
2023-11-23T20:48:00.412Z,9.57
2023-11-23T20:50:28.925Z,13.20
2023-11-23T20:52:56.868Z,10.32
2023-11-23T20:55:25.924Z,9.13
2023-11-23T20:57:54.277Z,13.88
2023-11-23T21:00:24.078Z,8.82
2023-11-23T21:02:54.089Z,10.57
2023-11-23T21:05:23.745Z,8.50
2023-11-23T21:07:53.094Z,10.80
2023-11-23T21:10:21.628Z,9.90
2023-11-23T21:12:49.570Z,10.88
2023-11-23T21:15:18.370Z,9.25
2023-11-23T21:17:46.351Z,10.55
2023-11-23T21:20:15.692Z,8.93
2023-11-23T21:22:43.763Z,9.40
2023-11-23T21:25:11.680Z,11.68
2023-11-23T21:27:39.579Z,9.68
2023-11-23T21:30:09.329Z,8.55
2023-11-23T21:32:38.038Z,9.68
2023-11-23T21:35:09.014Z,7.53
2023-11-23T21:37:38.438Z,8.65
2023-11-23T21:40:07.491Z,8.48
2023-11-23T21:42:35.344Z,6.40
2023-11-23T21:45:03.240Z,8.70
2023-11-23T21:47:31.061Z,11.35
2023-11-23T21:49:58.895Z,6.18
2023-11-23T21:52:26.769Z,6.50
2023-11-23T21:55:03.459Z,6.78
2023-11-23T21:57:32.269Z,6.35
2023-11-23T22:00:00.142Z,6.07
2023-11-23T22:02:28.344Z,6.72
2023-11-23T22:04:56.381Z,7.25
2023-11-23T22:07:25.483Z,6.80
2023-11-23T22:09:53.360Z,9.35
2023-11-23T22:12:23.280Z,7.07
2023-11-23T22:14:52.255Z,6.70
2023-11-23T22:17:20.650Z,7.93
2023-11-23T22:19:49.087Z,7.72
2023-11-23T22:22:17.617Z,5.72
2023-11-23T22:24:45.747Z,5.88
2023-11-23T22:27:14.046Z,5.72
2023-11-23T22:29:43.832Z,4.97
2023-11-23T22:32:11.780Z,6.45
2023-11-23T22:34:40.389Z,5.82
2023-11-23T22:37:08.946Z,5.80
2023-11-23T22:39:37.336Z,4.93
2023-11-23T22:42:05.928Z,6.53
2023-11-23T22:44:34.155Z,5.40
2023-11-23T22:47:07.313Z,4.85
2023-11-23T22:49:35.673Z,5.35
2023-11-23T22:52:05.255Z,5.18
2023-11-23T22:54:34.983Z,6.25
2023-11-23T22:57:04.436Z,5.32
2023-11-23T22:59:32.392Z,6.13
2023-11-23T23:02:00.712Z,7.88
2023-11-23T23:04:32.416Z,6.32
2023-11-23T23:07:00.336Z,5.03
2023-11-23T23:09:28.884Z,6.00
2023-11-23T23:11:57.827Z,6.45
2023-11-23T23:14:26.458Z,7.07
2023-11-23T23:16:54.317Z,5.80
2023-11-23T23:19:22.565Z,6.38
2023-11-23T23:21:55.564Z,8.70
2023-11-23T23:24:23.457Z,6.93
2023-11-23T23:26:51.522Z,4.25
2023-11-23T23:29:20.904Z,3.67
2023-11-23T23:31:48.737Z,7.43
2023-11-23T23:34:16.656Z,6.05
2023-11-23T23:36:44.456Z,4.50
2023-11-23T23:39:13.562Z,4.25
2023-11-23T23:41:41.705Z,3.60
2023-11-23T23:44:09.417Z,2.95
2023-11-23T23:46:37.225Z,3.85
2023-11-23T23:49:05.726Z,4.90
2023-11-23T23:51:33.634Z,3.30
2023-11-23T23:54:01.566Z,3.67
2023-11-23T23:56:30.740Z,2.95
2023-11-23T23:58:58.516Z,3.65
